createdAt,value
2023-04-03T00:01:24.856Z,0.17
2023-04-03T00:03:53.194Z,0.18
2023-04-03T00:06:21.664Z,0.17
2023-04-03T00:08:51.039Z,0.14
2023-04-03T00:17:11.354Z,0.15
2023-04-03T00:19:39.455Z,0.14
2023-04-03T00:22:07.391Z,0.10
2023-04-03T00:24:35.375Z,0.08
2023-04-03T00:27:03.510Z,0.09
2023-04-03T00:29:31.454Z,0.10
2023-04-03T00:31:59.371Z,0.05
2023-04-03T00:34:27.645Z,0.04
2023-04-03T00:36:56.200Z,0.02
2023-04-03T00:39:24.463Z,-0.01
2023-04-03T00:41:52.509Z,-0.04
2023-04-03T00:44:40.725Z,-0.07
2023-04-03T00:47:12.781Z,-0.07
2023-04-03T00:49:41.571Z,-0.10
2023-04-03T00:52:14.345Z,-0.10
2023-04-03T00:54:44.037Z,-0.10
2023-04-03T00:57:12.877Z,-0.09
2023-04-03T00:59:45.832Z,-0.13
2023-04-03T01:02:13.857Z,-0.14
2023-04-03T01:04:44.430Z,-0.17
2023-04-03T01:07:17.798Z,-0.18
2023-04-03T01:09:48.309Z,-0.20
2023-04-03T01:12:32.266Z,-0.23
2023-04-03T01:15:11.322Z,-0.23
2023-04-03T01:17:43.225Z,-0.23
2023-04-03T01:20:34.163Z,-0.25
2023-04-03T01:23:11.965Z,-0.23
2023-04-03T01:25:42.481Z,-0.23
2023-04-03T01:28:14.737Z,-0.23
2023-04-03T01:30:52.209Z,-0.27
2023-04-03T01:33:20.548Z,-0.29
2023-04-03T01:35:49.044Z,-0.32
2023-04-03T01:38:17.363Z,-0.34
2023-04-03T01:40:45.393Z,-0.33
2023-04-03T01:43:13.833Z,-0.37
2023-04-03T01:45:42.154Z,-0.41
2023-04-03T01:48:10.301Z,-0.41
2023-04-03T01:50:38.896Z,-0.39
2023-04-03T01:53:08.085Z,-0.40
2023-04-03T01:55:36.100Z,-0.42
2023-04-03T01:58:04.340Z,-0.42
2023-04-03T02:00:32.323Z,-0.42
2023-04-03T02:03:00.872Z,-0.41
2023-04-03T02:05:29.313Z,-0.42
2023-04-03T02:07:57.482Z,-0.44
2023-04-03T02:10:25.914Z,-0.43
2023-04-03T02:12:54.050Z,-0.42
2023-04-03T02:15:22.118Z,-0.43
2023-04-03T02:17:50.428Z,-0.43
2023-04-03T02:20:18.572Z,-0.44
2023-04-03T02:22:46.864Z,-0.45
2023-04-03T02:25:15.404Z,-0.43
2023-04-03T02:27:44.303Z,-0.46
2023-04-03T02:30:12.684Z,-0.46
2023-04-03T02:32:41.899Z,-0.48
2023-04-03T02:35:11.078Z,-0.48
2023-04-03T02:37:39.915Z,-0.47
2023-04-03T02:40:08.831Z,-0.45
2023-04-03T02:42:37.202Z,-0.44
2023-04-03T02:45:05.739Z,-0.43
2023-04-03T02:47:34.465Z,-0.46
2023-04-03T02:50:02.421Z,-0.46
2023-04-03T02:52:30.723Z,-0.44
2023-04-03T02:54:59.125Z,-0.42
2023-04-03T02:57:27.230Z,-0.42
2023-04-03T02:59:55.318Z,-0.46
2023-04-03T03:02:23.372Z,-0.48
2023-04-03T03:04:51.484Z,-0.52
2023-04-03T03:07:19.541Z,-0.58
2023-04-03T03:09:47.719Z,-0.59
2023-04-03T03:12:15.762Z,-0.59
2023-04-03T03:14:44.093Z,-0.57
2023-04-03T03:17:12.167Z,-0.56
2023-04-03T03:19:40.824Z,-0.57
2023-04-03T03:22:08.998Z,-0.55
2023-04-03T03:24:36.938Z,-0.56
2023-04-03T03:27:04.976Z,-0.55
2023-04-03T03:29:33.110Z,-0.59
2023-04-03T03:32:01.292Z,-0.62
2023-04-03T03:34:29.315Z,-0.67
2023-04-03T03:36:57.767Z,-0.74
2023-04-03T03:39:25.945Z,-0.81
2023-04-03T03:41:54.560Z,-0.84
2023-04-03T03:44:22.683Z,-0.86
2023-04-03T03:46:50.859Z,-0.91
2023-04-03T03:49:19.048Z,-0.95
2023-04-03T03:51:47.932Z,-0.98
2023-04-03T03:54:16.544Z,-1.04
2023-04-03T03:56:44.953Z,-1.08
2023-04-03T03:59:13.721Z,-1.12
2023-04-03T04:01:42.102Z,-1.12
2023-04-03T04:04:10.631Z,-1.17
2023-04-03T04:06:39.054Z,-1.17
2023-04-03T04:09:10.396Z,-1.22
2023-04-03T04:11:40.818Z,-1.21
2023-04-03T04:14:11.485Z,-1.18
2023-04-03T04:16:40.500Z,-1.16
2023-04-03T04:19:12.325Z,-1.13
2023-04-03T04:21:42.510Z,-1.14
2023-04-03T04:24:11.277Z,-1.14
2023-04-03T04:26:39.795Z,-1.16
2023-04-03T04:29:10.923Z,-1.16
2023-04-03T04:31:38.913Z,-1.15
2023-04-03T04:34:07.328Z,-1.15
2023-04-03T04:36:36.367Z,-1.12
2023-04-03T04:39:04.699Z,-1.10
2023-04-03T04:41:33.021Z,-1.09
2023-04-03T04:44:02.089Z,-1.05
2023-04-03T04:46:30.591Z,-1.04
2023-04-03T04:48:59.392Z,-1.04
2023-04-03T04:51:32.862Z,-1.03
2023-04-03T04:54:04.017Z,-1.01
2023-04-03T04:56:32.174Z,-1.06
2023-04-03T04:59:02.373Z,-1.06
2023-04-03T05:01:31.037Z,-1.07
2023-04-03T05:04:04.633Z,-1.13
2023-04-03T05:06:33.132Z,-1.16
2023-04-03T05:09:02.280Z,-1.19
2023-04-03T05:11:31.164Z,-1.21
2023-04-03T05:13:59.237Z,-1.24
2023-04-03T05:16:27.573Z,-1.25
2023-04-03T05:18:56.869Z,-1.33
2023-04-03T05:21:27.138Z,-1.36
2023-04-03T05:23:56.145Z,-1.41
2023-04-03T05:26:24.459Z,-1.45
2023-04-03T05:28:52.954Z,-1.47
2023-04-03T05:31:21.307Z,-1.48
2023-04-03T05:33:50.538Z,-1.55
2023-04-03T05:36:19.921Z,-1.54
2023-04-03T05:38:50.037Z,-1.57
2023-04-03T05:41:19.669Z,-1.56
2023-04-03T05:43:47.926Z,-1.55
2023-04-03T05:46:19.718Z,-1.55
2023-04-03T05:48:49.707Z,-1.58
2023-04-03T05:51:23.880Z,-1.60
2023-04-03T05:54:22.148Z,-1.60
2023-04-03T05:56:51.128Z,-1.63
2023-04-03T05:59:20.915Z,-1.60
2023-04-03T06:01:51.994Z,-1.60
2023-04-03T06:04:22.419Z,-1.64
2023-04-03T06:06:56.702Z,-1.69
2023-04-03T06:09:30.152Z,-1.73
2023-04-03T06:12:01.885Z,-1.77
2023-04-03T06:14:30.472Z,-1.76
2023-04-03T06:16:58.832Z,-1.76
2023-04-03T06:19:27.020Z,-1.73
2023-04-03T06:21:57.599Z,-1.70
2023-04-03T06:24:26.333Z,-1.68
2023-04-03T06:26:54.457Z,-1.65
2023-04-03T06:29:22.694Z,-1.60
2023-04-03T06:31:52.046Z,-1.58
2023-04-03T06:34:20.031Z,-1.52
2023-04-03T06:36:48.335Z,-1.46
2023-04-03T06:39:21.406Z,-1.43
2023-04-03T06:41:50.432Z,-1.38
2023-04-03T06:44:18.930Z,-1.35
2023-04-03T06:46:47.690Z,-1.31
2023-04-03T06:49:16.184Z,-1.28
2023-04-03T06:51:44.192Z,-1.21
2023-04-03T06:54:12.598Z,-1.19
2023-04-03T06:56:40.849Z,-1.16
2023-04-03T06:59:09.629Z,-1.15
2023-04-03T07:01:37.780Z,-1.16
2023-04-03T07:04:06.661Z,-1.16
2023-04-03T07:06:35.366Z,-1.15
2023-04-03T07:09:03.973Z,-1.15
2023-04-03T07:11:32.380Z,-1.12
2023-04-03T07:14:00.581Z,-1.07
2023-04-03T07:16:28.834Z,-1.04
2023-04-03T07:18:57.207Z,-1.03
2023-04-03T07:21:25.451Z,-1.04
2023-04-03T07:23:53.429Z,-1.06
2023-04-03T07:26:22.100Z,-1.07
2023-04-03T07:28:51.026Z,-1.05
2023-04-03T07:31:21.107Z,-1.02
2023-04-03T07:33:49.279Z,-0.98
2023-04-03T07:36:19.869Z,-0.92
2023-04-03T07:38:47.895Z,-0.90
2023-04-03T07:41:18.858Z,-0.86
2023-04-03T07:43:48.260Z,-0.85
2023-04-03T07:46:18.498Z,-0.82
2023-04-03T07:48:46.628Z,-0.75
2023-04-03T07:51:14.804Z,-0.69
2023-04-03T07:53:42.899Z,-0.62
2023-04-03T07:56:10.989Z,-0.56
2023-04-03T07:58:39.214Z,-0.52
2023-04-03T08:01:07.254Z,-0.50
2023-04-03T08:03:35.791Z,-0.50
2023-04-03T08:06:07.415Z,-0.42
2023-04-03T08:08:37.435Z,-0.43
2023-04-03T08:11:07.244Z,-0.36
2023-04-03T08:13:36.771Z,-0.17
2023-04-03T08:16:19.190Z,-0.03
2023-04-03T08:18:47.188Z,0.02
2023-04-03T08:21:15.424Z,0.09
2023-04-03T08:23:43.456Z,0.12
2023-04-03T08:26:16.856Z,0.04
2023-04-03T08:28:44.811Z,0.01
2023-04-03T08:31:16.881Z,0.01
2023-04-03T08:33:45.490Z,0.00
2023-04-03T08:36:26.261Z,-0.05
2023-04-03T08:38:55.856Z,0.02
2023-04-03T08:41:36.768Z,-0.01
2023-04-03T08:44:23.714Z,-0.06
2023-04-03T08:47:04.037Z,-0.08
2023-04-03T08:49:53.029Z,-0.07
2023-04-03T08:52:29.509Z,-0.18
2023-04-03T08:55:04.690Z,-0.34
2023-04-03T08:59:43.356Z,-0.32
2023-04-03T09:02:34.796Z,-0.38
2023-04-03T09:05:12.379Z,-0.31
2023-04-03T09:07:48.431Z,-0.30
2023-04-03T09:10:25.471Z,-0.30
2023-04-03T09:13:04.648Z,-0.40
2023-04-03T09:15:39.063Z,-0.46
2023-04-03T09:18:20.592Z,-0.45
2023-04-03T09:21:18.177Z,-0.35
2023-04-03T09:23:53.461Z,-0.38
2023-04-03T09:26:30.416Z,-0.40
2023-04-03T09:29:03.407Z,-0.37
2023-04-03T09:31:39.635Z,-0.35
2023-04-03T09:34:22.646Z,-0.36
2023-04-03T09:36:52.628Z,-0.29
2023-04-03T09:39:23.510Z,-0.23
2023-04-03T09:42:00.929Z,-0.25
2023-04-03T09:44:33.258Z,-0.31
2023-04-03T09:47:20.981Z,-0.40
2023-04-03T09:49:49.048Z,-0.47
2023-04-03T09:52:27.524Z,-0.52
2023-04-03T09:55:08.678Z,-0.56
2023-04-03T09:57:37.108Z,-0.55
2023-04-03T10:00:06.746Z,-0.51
2023-04-03T10:02:40.543Z,-0.47
2023-04-03T10:05:29.438Z,-0.41
2023-04-03T10:08:12.476Z,-0.43
2023-04-03T10:10:46.647Z,-0.49
2023-04-03T10:13:22.605Z,-0.52
2023-04-03T10:16:03.247Z,-0.48
2023-04-03T10:18:47.962Z,-0.44
2023-04-03T10:21:59.912Z,-0.49
2023-04-03T10:24:39.608Z,-0.52
2023-04-03T10:27:33.961Z,-0.55
2023-04-03T10:30:23.364Z,-0.51
2023-04-03T10:32:54.354Z,-0.48
2023-04-03T10:35:43.567Z,-0.42
2023-04-03T10:38:33.568Z,-0.35
2023-04-03T10:41:17.697Z,-0.29
2023-04-03T10:43:57.398Z,-0.28
2023-04-03T10:46:45.074Z,-0.29
2023-04-03T10:49:22.419Z,-0.32
2023-04-03T10:52:02.069Z,-0.26
2023-04-03T10:54:40.525Z,-0.22
2023-04-03T10:57:13.874Z,-0.18
2023-04-03T11:00:37.467Z,-0.11
2023-04-03T11:03:13.412Z,-0.06
2023-04-03T11:05:50.886Z,-0.08
2023-04-03T11:08:42.792Z,-0.12
2023-04-03T11:11:14.400Z,-0.18
2023-04-03T11:13:55.596Z,-0.16
2023-04-03T11:16:32.004Z,-0.16
2023-04-03T11:19:05.693Z,-0.23
2023-04-03T11:21:40.957Z,-0.26
2023-04-03T11:24:22.445Z,-0.21
2023-04-03T11:26:53.021Z,-0.18
2023-04-03T11:29:35.601Z,-0.15
2023-04-03T11:32:18.216Z,-0.13
2023-04-03T11:34:48.293Z,-0.09
2023-04-03T11:37:24.785Z,0.01
2023-04-03T11:40:03.767Z,0.07
2023-04-03T11:42:43.235Z,0.21
2023-04-03T11:54:49.261Z,0.83
2023-04-03T11:57:49.423Z,0.93
2023-04-03T12:01:01.634Z,0.97
2023-04-03T12:03:32.540Z,0.91
2023-04-03T12:07:37.344Z,0.90
2023-04-03T12:10:28.722Z,0.86
2023-04-03T12:13:26.290Z,0.96
2023-04-03T12:15:55.342Z,1.03
2023-04-03T12:18:43.148Z,1.07
2023-04-03T12:21:14.257Z,1.14
2023-04-03T12:24:05.274Z,1.17
2023-04-03T12:27:00.370Z,1.14
2023-04-03T12:29:35.095Z,1.15
2023-04-03T12:32:22.083Z,1.12
2023-04-03T12:35:18.255Z,1.11
2023-04-03T12:38:01.462Z,1.17
2023-04-03T12:40:42.040Z,1.22
2023-04-03T12:43:27.592Z,1.30
2023-04-03T12:46:17.343Z,1.38
2023-04-03T12:48:45.638Z,1.40
2023-04-03T12:51:36.267Z,1.41
2023-04-03T12:54:30.709Z,1.36
2023-04-03T12:57:18.776Z,1.32
2023-04-03T12:59:48.272Z,1.28
2023-04-03T13:02:27.228Z,1.27
2023-04-03T13:04:59.466Z,1.22
2023-04-03T13:07:54.120Z,1.23
2023-04-03T13:10:22.711Z,1.27
2023-04-03T13:12:55.653Z,1.32
2023-04-03T13:15:50.044Z,1.42
2023-04-03T13:18:36.428Z,1.55
2023-04-03T13:21:15.297Z,1.60
2023-04-03T13:23:49.155Z,1.58
2023-04-03T13:26:22.901Z,1.58
2023-04-03T13:28:52.622Z,1.58
2023-04-03T13:31:31.437Z,1.53
2023-04-03T13:34:08.828Z,1.47
2023-04-03T13:36:44.693Z,1.40
2023-04-03T13:39:15.848Z,1.37
2023-04-03T13:41:50.441Z,1.36
2023-04-03T13:44:25.087Z,1.40
2023-04-03T13:46:54.341Z,1.41
2023-04-03T13:49:39.624Z,1.43
2023-04-03T13:52:41.979Z,1.38
2023-04-03T13:55:26.926Z,1.37
2023-04-03T13:58:08.715Z,1.35
2023-04-03T14:00:52.061Z,1.32
2023-04-03T14:03:29.239Z,1.36
2023-04-03T14:05:57.719Z,1.41
2023-04-03T14:08:39.617Z,1.50
2023-04-03T14:11:18.184Z,1.58
2023-04-03T14:13:48.426Z,1.64
2023-04-03T14:16:22.499Z,1.61
2023-04-03T14:18:53.281Z,1.61
2023-04-03T14:21:22.556Z,1.62
2023-04-03T14:23:51.915Z,1.60
2023-04-03T14:26:24.856Z,1.60
2023-04-03T14:28:56.577Z,1.57
2023-04-03T14:31:25.291Z,1.55
2023-04-03T14:33:53.349Z,1.58
2023-04-03T14:36:27.348Z,1.62
2023-04-03T14:38:56.606Z,1.66
2023-04-03T14:41:26.251Z,1.69
2023-04-03T14:43:54.825Z,1.74
2023-04-03T14:46:48.713Z,1.80
2023-04-03T14:49:29.991Z,1.77
2023-04-03T14:51:59.278Z,1.66
2023-04-03T14:54:29.354Z,1.57
2023-04-03T14:57:00.663Z,1.50
2023-04-03T14:59:31.688Z,1.42
2023-04-03T15:01:59.933Z,1.41
2023-04-03T15:04:29.182Z,1.45
2023-04-03T15:06:57.390Z,1.49
2023-04-03T15:09:28.466Z,1.50
2023-04-03T15:11:57.155Z,1.49
2023-04-03T15:14:36.047Z,1.50
2023-04-03T15:17:06.955Z,1.45
2023-04-03T15:19:38.627Z,1.38
2023-04-03T15:22:07.314Z,1.31
2023-04-03T15:24:35.313Z,1.25
2023-04-03T15:27:03.470Z,1.22
2023-04-03T15:29:31.588Z,1.21
2023-04-03T15:31:59.635Z,1.19
2023-04-03T15:34:28.746Z,1.15
2023-04-03T15:36:56.797Z,1.08
2023-04-03T15:39:26.485Z,1.05
2023-04-03T15:41:55.327Z,1.04
2023-04-03T15:44:23.357Z,1.11
2023-04-03T15:46:52.525Z,1.19
2023-04-03T15:49:23.313Z,1.25
2023-04-03T15:51:51.788Z,1.26
2023-04-03T15:54:19.797Z,1.19
2023-04-03T15:56:47.824Z,1.10
2023-04-03T15:59:16.430Z,1.04
2023-04-03T16:01:45.035Z,1.04
2023-04-03T16:04:14.825Z,1.03
2023-04-03T16:06:44.101Z,1.02
2023-04-03T16:09:12.781Z,1.08
2023-04-03T16:11:40.932Z,1.12
2023-04-03T16:14:09.239Z,1.11
2023-04-03T16:16:38.186Z,1.12
2023-04-03T16:19:06.677Z,1.11
2023-04-03T16:21:34.787Z,1.10
2023-04-03T16:24:04.751Z,1.05
2023-04-03T16:26:33.444Z,1.04
2023-04-03T16:29:02.138Z,0.89
2023-04-03T16:31:32.542Z,0.83
2023-04-03T16:34:34.616Z,0.86
2023-04-03T16:37:02.970Z,0.87
2023-04-03T16:39:31.321Z,0.87
2023-04-03T16:41:59.761Z,0.85
2023-04-03T16:44:28.499Z,0.77
2023-04-03T16:46:56.538Z,0.75
2023-04-03T16:49:24.949Z,0.75
2023-04-03T16:51:53.049Z,0.71
2023-04-03T17:01:17.730Z,0.51
2023-04-03T17:03:46.501Z,0.46
2023-04-03T17:06:18.739Z,0.42
2023-04-03T17:08:48.874Z,0.39
2023-04-03T17:11:29.615Z,0.35
2023-04-03T17:13:57.668Z,0.33
2023-04-03T17:16:27.129Z,0.29
2023-04-03T17:18:56.028Z,0.27
2023-04-03T17:21:26.227Z,0.23
2023-04-03T17:23:58.659Z,0.23
2023-04-03T17:26:27.561Z,0.22
2023-04-03T17:28:55.782Z,0.20
2023-04-03T17:31:24.239Z,0.18
2023-04-03T17:33:52.324Z,0.17
2023-04-03T17:36:20.288Z,0.16
2023-04-03T17:38:50.327Z,0.13
2023-04-03T17:41:18.658Z,0.10
2023-04-03T17:43:47.261Z,0.07
2023-04-03T17:46:17.660Z,0.04
2023-04-03T17:48:46.002Z,0.02
2023-04-03T17:51:17.582Z,0.00
2023-04-03T17:53:46.053Z,-0.02
2023-04-03T17:56:19.714Z,-0.05
2023-04-03T17:58:48.043Z,-0.06
2023-04-03T18:01:20.186Z,-0.09
2023-04-03T18:03:51.883Z,-0.12
2023-04-03T18:06:22.426Z,-0.12
2023-04-03T18:08:54.704Z,-0.12
2023-04-03T18:11:30.093Z,-0.14
2023-04-03T18:14:02.364Z,-0.16
2023-04-03T18:16:31.122Z,-0.19
2023-04-03T18:19:17.562Z,-0.20
2023-04-03T18:21:48.118Z,-0.19
2023-04-03T18:24:20.379Z,-0.18
2023-04-03T18:26:54.890Z,-0.17
2023-04-03T18:29:23.631Z,-0.16
2023-04-03T18:31:55.958Z,-0.14
2023-04-03T18:34:23.998Z,-0.14
2023-04-03T18:36:52.581Z,-0.14
2023-04-03T18:39:21.645Z,-0.15
2023-04-03T18:41:50.515Z,-0.13
2023-04-03T18:44:23.422Z,-0.13
2023-04-03T18:46:53.846Z,-0.14
2023-04-03T18:49:22.210Z,-0.13
2023-04-03T18:51:50.466Z,-0.15
2023-04-03T18:54:18.534Z,-0.16
2023-04-03T18:56:47.285Z,-0.17
2023-04-03T18:59:15.785Z,-0.18
2023-04-03T19:01:44.148Z,-0.22
2023-04-03T19:04:12.571Z,-0.27
2023-04-03T19:06:40.669Z,-0.29
2023-04-03T19:09:09.246Z,-0.32
2023-04-03T19:11:37.419Z,-0.34
2023-04-03T19:14:15.824Z,-0.34
2023-04-03T19:16:45.070Z,-0.35
2023-04-03T19:19:13.473Z,-0.37
2023-04-03T19:21:42.143Z,-0.39
2023-04-03T19:24:12.800Z,-0.40
2023-04-03T19:26:42.488Z,-0.41
2023-04-03T19:29:11.423Z,-0.42
2023-04-03T19:31:40.299Z,-0.45
2023-04-03T19:34:08.677Z,-0.49
2023-04-03T19:36:37.405Z,-0.50
2023-04-03T19:39:06.135Z,-0.50
2023-04-03T19:41:36.866Z,-0.53
2023-04-03T19:44:07.332Z,-0.56
2023-04-03T19:46:36.481Z,-0.58
2023-04-03T19:49:05.246Z,-0.59
2023-04-03T19:51:33.694Z,-0.57
2023-04-03T19:54:02.012Z,-0.62
2023-04-03T19:56:30.066Z,-0.64
2023-04-03T19:58:58.111Z,-0.63
2023-04-03T20:01:27.988Z,-0.64
2023-04-03T20:03:56.812Z,-0.69
2023-04-03T20:06:25.067Z,-0.72
2023-04-03T20:08:53.775Z,-0.73
2023-04-03T20:11:23.094Z,-0.75
2023-04-03T20:13:52.493Z,-0.77
2023-04-03T20:16:23.617Z,-0.76
2023-04-03T20:18:55.210Z,-0.76
2023-04-03T20:21:32.142Z,-0.75
2023-04-03T20:24:02.207Z,-0.76
2023-04-03T20:26:32.424Z,-0.75
2023-04-03T20:29:03.436Z,-0.75
2023-04-03T20:31:32.891Z,-0.73
2023-04-03T20:34:02.122Z,-0.70
2023-04-03T20:36:31.273Z,-0.69
2023-04-03T20:39:00.632Z,-0.68
2023-04-03T20:41:29.507Z,-0.70
2023-04-03T20:44:00.763Z,-0.68
2023-04-03T20:46:42.038Z,-0.68
2023-04-03T20:49:18.599Z,-0.70
2023-04-03T20:51:46.609Z,-0.70
2023-04-03T20:54:14.861Z,-0.68
2023-04-03T20:56:44.240Z,-0.67
2023-04-03T20:59:14.358Z,-0.64
2023-04-03T21:01:43.361Z,-0.61
2023-04-03T21:04:19.427Z,-0.60
2023-04-03T21:07:25.884Z,-0.57
2023-04-03T21:10:31.850Z,-0.56
2023-04-03T21:13:37.729Z,-0.57
2023-04-03T21:16:05.653Z,-0.56
2023-04-03T21:18:40.357Z,-0.59
2023-04-03T21:21:23.299Z,-0.60
2023-04-03T21:23:53.448Z,-0.61
2023-04-03T21:26:23.238Z,-0.63
2023-04-03T21:28:52.502Z,-0.64
2023-04-03T21:31:22.141Z,-0.67
2023-04-03T21:33:51.170Z,-0.69
2023-04-03T21:36:19.240Z,-0.68
2023-04-03T21:38:47.827Z,-0.67
2023-04-03T21:41:15.760Z,-0.65
2023-04-03T21:43:46.027Z,-0.64
2023-04-03T21:46:14.016Z,-0.64
2023-04-03T21:48:41.990Z,-0.64
2023-04-03T21:51:11.127Z,-0.64
2023-04-03T21:53:40.217Z,-0.63
2023-04-03T21:56:08.462Z,-0.65
2023-04-03T21:58:36.497Z,-0.64
2023-04-03T22:01:11.900Z,-0.62
2023-04-03T22:03:41.617Z,-0.62
2023-04-03T22:06:10.741Z,-0.65
2023-04-03T22:08:38.916Z,-0.66
2023-04-03T22:11:09.890Z,-0.63
2023-04-03T22:13:37.853Z,-0.64
2023-04-03T22:16:06.219Z,-0.61
2023-04-03T22:18:34.844Z,-0.59
2023-04-03T22:21:03.295Z,-0.61
2023-04-03T22:23:32.015Z,-0.63
2023-04-03T22:26:07.755Z,-0.66
2023-04-03T22:28:39.187Z,-0.68
2023-04-03T22:31:07.827Z,-0.71
2023-04-03T22:33:36.560Z,-0.72
2023-04-03T22:36:06.198Z,-0.72
2023-04-03T22:38:35.255Z,-0.71
2023-04-03T22:41:05.961Z,-0.70
2023-04-03T22:43:36.560Z,-0.74
2023-04-03T22:46:06.846Z,-0.77
2023-04-03T22:48:35.137Z,-0.78
2023-04-03T22:51:09.524Z,-0.81
2023-04-03T22:53:38.104Z,-0.86
2023-04-03T22:56:14.046Z,-0.88
2023-04-03T22:58:42.235Z,-0.92
2023-04-03T23:01:12.252Z,-0.98
2023-04-03T23:03:42.285Z,-1.00
2023-04-03T23:06:10.785Z,-1.00
2023-04-03T23:08:39.528Z,-1.07
2023-04-03T23:11:09.515Z,-1.07
2023-04-03T23:13:38.435Z,-1.08
2023-04-03T23:16:06.977Z,-1.09
2023-04-03T23:18:35.230Z,-1.13
2023-04-03T23:21:04.365Z,-1.15
2023-04-03T23:23:32.798Z,-1.15
2023-04-03T23:26:02.136Z,-1.16
2023-04-03T23:28:30.569Z,-1.17
2023-04-03T23:31:03.336Z,-1.19
2023-04-03T23:33:32.332Z,-1.24
2023-04-03T23:36:07.684Z,-1.28
2023-04-03T23:38:36.263Z,-1.32
2023-04-03T23:41:04.213Z,-1.38
2023-04-03T23:43:32.328Z,-1.41
2023-04-03T23:46:00.493Z,-1.42
2023-04-03T23:48:28.647Z,-1.41
2023-04-03T23:50:57.297Z,-1.47
2023-04-03T23:53:25.197Z,-1.50
2023-04-03T23:55:53.136Z,-1.51
2023-04-03T23:58:21.316Z,-1.52
